Time;durP1;ratioP1;P1;durP2;ratioP2;P2;SDS_P1;SDS_P2;PMS_P1;PMS_P2;Temp;Humidity;BMP_temperature;BMP_pressure;BME280_temperature;BME280_humidity;BME280_pressure;Samples;Min_cycle;Max_cycle;Signal;HPM_P1;HPM_P2
2021/05/18 00:00:09;;;;;;;11.50;9.30;;;9.60;99.90;;;;;;5033237;28;20045;-68
2021/05/18 00:02:35;;;;;;;12.15;9.32;;;9.70;99.90;;;;;;5020011;28;20095;-68
2021/05/18 00:05:01;;;;;;;12.48;9.90;;;9.60;99.90;;;;;;5021149;28;20043;-68
2021/05/18 00:07:27;;;;;;;13.00;9.73;;;9.60;99.90;;;;;;5019898;28;20049;-68
2021/05/18 00:12:38;;;;;;;12.27;10.23;;;9.50;99.90;;;;;;5024391;28;21117;-68
2021/05/18 00:15:09;;;;;;;13.45;9.68;;;9.60;99.90;;;;;;5032342;28;20412;-68
2021/05/18 00:17:35;;;;;;;13.07;10.10;;;9.50;99.90;;;;;;5022194;28;20473;-68
2021/05/18 00:20:08;;;;;;;14.75;10.68;;;9.50;99.90;;;;;;5025623;28;20374;-68
2021/05/18 00:22:34;;;;;;;13.73;10.75;;;9.50;99.90;;;;;;5024746;28;20127;-68
2021/05/18 00:25:00;;;;;;;13.20;10.38;;;9.60;99.90;;;;;;5033232;28;20166;-68
2021/05/18 00:27:29;;;;;;;14.38;10.38;;;9.60;99.90;;;;;;5017166;28;20124;-68
2021/05/18 00:29:55;;;;;;;11.73;10.35;;;9.60;99.90;;;;;;5021683;28;20105;-68
2021/05/18 00:32:21;;;;;;;13.68;10.70;;;9.60;99.90;;;;;;5016153;28;20034;-68
2021/05/18 00:34:52;;;;;;;14.48;10.85;;;9.60;99.90;;;;;;5033713;28;20157;-68
2021/05/18 00:37:18;;;;;;;13.18;10.57;;;9.60;99.90;;;;;;5025112;28;20040;-68
2021/05/18 00:39:44;;;;;;;14.50;10.80;;;9.60;99.90;;;;;;5023393;28;20038;-68
2021/05/18 00:42:15;;;;;;;14.10;11.68;;;9.60;99.90;;;;;;5027336;28;20037;-68
2021/05/18 00:44:41;;;;;;;13.23;10.95;;;9.60;99.90;;;;;;5021138;28;20527;-68
2021/05/18 00:47:07;;;;;;;13.85;10.50;;;9.60;99.90;;;;;;5027236;28;20200;-68
2021/05/18 00:49:33;;;;;;;15.57;10.70;;;9.60;99.90;;;;;;5018529;28;20131;-68
2021/05/18 00:51:59;;;;;;;13.95;10.05;;;9.70;99.90;;;;;;5028776;28;20380;-68
2021/05/18 00:54:28;;;;;;;15.35;11.35;;;9.70;99.90;;;;;;5022092;28;20067;-68
2021/05/18 00:59:21;;;;;;;13.65;10.75;;;9.60;99.90;;;;;;5025562;28;20518;-68
2021/05/18 01:01:47;;;;;;;14.45;10.57;;;9.70;99.90;;;;;;5033211;28;20060;-68
2021/05/18 01:04:16;;;;;;;11.57;9.93;;;9.70;99.90;;;;;;5016553;28;20361;-68
2021/05/18 01:06:42;;;;;;;15.05;10.82;;;9.60;99.90;;;;;;5022788;28;20170;-68
2021/05/18 01:09:12;;;;;;;15.98;10.90;;;9.70;99.90;;;;;;5022852;28;20119;-68
2021/05/18 01:11:40;;;;;;;14.18;10.05;;;9.60;99.90;;;;;;5030638;28;20599;-68
2021/05/18 01:14:12;;;;;;;12.75;10.73;;;9.60;99.90;;;;;;5015633;28;20095;-68
2021/05/18 01:16:43;;;;;;;14.00;11.27;;;9.50;99.90;;;;;;5030751;28;20056;-68
2021/05/18 01:19:10;;;;;;;14.60;10.18;;;9.50;99.90;;;;;;5028229;28;20057;-68
2021/05/18 01:21:36;;;;;;;12.82;10.98;;;9.50;99.90;;;;;;5024288;28;20037;-68
2021/05/18 01:24:04;;;;;;;15.85;10.70;;;9.40;99.90;;;;;;5023801;28;20150;-68
2021/05/18 01:26:32;;;;;;;12.55;10.15;;;9.30;99.90;;;;;;5013347;28;20096;-68
2021/05/18 01:28:59;;;;;;;15.00;10.98;;;9.30;99.90;;;;;;5024570;28;20049;-68
2021/05/18 01:31:26;;;;;;;16.05;11.00;;;9.20;99.90;;;;;;5018623;28;20069;-68
2021/05/18 01:33:54;;;;;;;14.82;10.82;;;9.10;99.90;;;;;;5026031;28;20562;-68
2021/05/18 01:36:22;;;;;;;13.48;11.07;;;9.10;99.90;;;;;;5022740;28;20581;-68
2021/05/18 01:39:25;;;;;;;14.80;10.88;;;9.00;99.90;;;;;;5024174;28;20037;-68
2021/05/18 01:44:36;;;;;;;15.05;9.95;;;8.90;99.90;;;;;;5027282;28;20087;-68
2021/05/18 01:47:04;;;;;;;18.38;11.70;;;8.80;99.90;;;;;;5029498;28;20050;-68
2021/05/18 01:49:30;;;;;;;17.60;11.50;;;8.90;99.90;;;;;;5031214;28;20425;-68
2021/05/18 01:52:00;;;;;;;15.93;12.20;;;8.80;99.90;;;;;;5020107;28;20091;-68
2021/05/18 01:54:31;;;;;;;16.80;11.15;;;8.70;99.90;;;;;;5027117;28;20045;-68
2021/05/18 01:59:27;;;;;;;16.38;12.02;;;8.60;99.90;;;;;;5033657;28;20547;-68
2021/05/18 02:01:56;;;;;;;15.35;12.25;;;8.60;99.90;;;;;;5022304;28;20037;-68
2021/05/18 02:04:37;;;;;;;12.80;11.13;;;8.60;99.90;;;;;;5021591;28;20037;-68
2021/05/18 02:07:07;;;;;;;15.10;11.18;;;8.50;99.90;;;;;;5024870;28;20404;-68
2021/05/18 02:09:33;;;;;;;16.00;11.82;;;8.40;99.90;;;;;;5027500;28;20064;-68
2021/05/18 02:11:59;;;;;;;15.95;11.55;;;8.30;99.90;;;;;;5013041;28;20037;-68
2021/05/18 02:14:28;;;;;;;15.05;10.73;;;8.30;99.90;;;;;;5025684;28;20076;-68
2021/05/18 02:17:03;;;;;;;15.13;10.10;;;8.20;99.90;;;;;;5026178;28;20125;-68
2021/05/18 02:19:50;;;;;;;16.63;11.10;;;8.20;99.90;;;;;;5020342;28;20148;-68
2021/05/18 02:24:37;;;;;;;14.27;10.38;;;8.10;99.90;;;;;;5015963;28;20041;-68
2021/05/18 02:25:07;;;;;;;14.45;11.27;;;8.10;99.90;;;;;;5030985;28;20497;-68
2021/05/18 02:27:33;;;;;;;15.55;11.32;;;8.00;99.90;;;;;;5021941;28;20222;-68
2021/05/18 02:29:59;;;;;;;17.48;11.00;;;8.00;99.90;;;;;;5022028;28;20038;-68
2021/05/18 02:32:27;;;;;;;16.60;12.23;;;7.90;99.90;;;;;;5022540;28;20049;-68
2021/05/18 02:34:53;;;;;;;19.02;12.23;;;7.80;99.90;;;;;;5033088;28;20473;-68
2021/05/18 02:37:19;;;;;;;17.40;11.77;;;7.70;99.90;;;;;;5029020;28;20045;-68
2021/05/18 02:39:44;;;;;;;22.83;14.00;;;7.70;99.90;;;;;;5031192;28;20087;-68
2021/05/18 02:42:10;;;;;;;17.48;11.10;;;7.70;99.90;;;;;;5034421;28;20034;-68
2021/05/18 02:44:44;;;;;;;15.20;10.63;;;7.60;99.90;;;;;;5025425;28;20046;-68
2021/05/18 02:49:55;;;;;;;15.10;10.93;;;7.50;99.90;;;;;;5029051;28;20543;-68
2021/05/18 02:52:21;;;;;;;19.88;11.85;;;7.50;99.90;;;;;;5032522;28;20170;-68
2021/05/18 02:54:52;;;;;;;14.50;11.40;;;7.40;99.90;;;;;;5028171;28;20040;-68
2021/05/18 02:57:34;;;;;;;15.15;11.27;;;7.40;99.90;;;;;;5032711;28;20052;-68
2021/05/18 03:00:10;;;;;;;19.38;12.88;;;7.30;99.90;;;;;;5025429;28;20103;-68
2021/05/18 03:02:36;;;;;;;12.13;10.48;;;7.30;99.90;;;;;;5031112;28;20037;-68
2021/05/18 03:05:03;;;;;;;19.63;12.25;;;7.30;99.90;;;;;;5023480;28;20064;-68
2021/05/18 03:07:29;;;;;;;18.55;11.82;;;7.20;99.90;;;;;;5031351;28;20137;-68
2021/05/18 03:09:55;;;;;;;18.65;13.10;;;7.20;99.90;;;;;;5017010;28;20053;-68
2021/05/18 03:12:21;;;;;;;19.15;11.95;;;7.20;99.90;;;;;;5028747;28;20034;-68
2021/05/18 03:14:47;;;;;;;21.58;12.98;;;7.10;99.90;;;;;;5019775;28;20058;-68
2021/05/18 03:17:13;;;;;;;21.83;12.40;;;7.10;99.90;;;;;;5028175;28;20050;-68
2021/05/18 03:19:39;;;;;;;17.85;11.68;;;7.00;99.90;;;;;;5023923;28;20063;-68
2021/05/18 03:22:05;;;;;;;19.33;13.35;;;7.00;99.90;;;;;;5035326;28;20034;-68
2021/05/18 03:24:31;;;;;;;17.15;12.02;;;7.00;99.90;;;;;;5023441;28;20065;-68
2021/05/18 03:26:56;;;;;;;15.80;12.55;;;6.90;99.90;;;;;;5026455;28;20489;-68
2021/05/18 03:29:25;;;;;;;22.77;12.70;;;6.90;99.90;;;;;;5032520;28;20522;-68
2021/05/18 03:34:38;;;;;;;20.70;13.07;;;6.90;99.90;;;;;;5027865;28;20072;-68
2021/05/18 03:37:11;;;;;;;18.55;13.50;;;6.90;99.90;;;;;;5024460;28;20042;-68
2021/05/18 03:39:38;;;;;;;18.80;13.18;;;6.90;99.90;;;;;;5024077;28;20034;-68
2021/05/18 03:42:12;;;;;;;22.13;13.98;;;6.80;99.90;;;;;;5030489;28;20120;-68
2021/05/18 03:52:52;;;;;;;20.00;13.13;;;6.80;99.90;;;;;;5033623;28;20058;-68
2021/05/18 04:04:11;;;;;;;19.00;14.15;;;6.80;99.90;;;;;;4937467;29;20074;-68
2021/05/18 04:17:38;;;;;;;26.73;17.17;;;6.90;99.90;;;;;;5021530;28;20511;-68
2021/05/18 04:22:49;;;;;;;31.42;19.00;;;7.10;99.90;;;;;;5030225;28;20477;-68
2021/05/18 04:49:44;;;;;;;27.52;19.40;;;8.20;99.90;;;;;;5024313;28;20042;-68
2021/05/18 04:52:11;;;;;;;29.73;21.13;;;8.40;99.90;;;;;;5029653;28;20052;-68
2021/05/18 05:00:17;;;;;;;;;;;9.00;99.90;;;;;;5038995;28;20048;-68
2021/05/18 05:08:09;;;;;;;22.80;16.35;;;9.80;99.90;;;;;;5029975;28;20040;-68
2021/05/18 05:15:38;;;;;;;20.15;15.50;;;10.10;99.90;;;;;;5027435;28;20041;-68
2021/05/18 05:18:04;;;;;;;19.33;15.20;;;10.10;99.90;;;;;;5029265;28;20413;-68
2021/05/18 05:20:30;;;;;;;20.40;16.27;;;10.20;99.90;;;;;;5029014;28;20369;-68
2021/05/18 05:22:56;;;;;;;20.75;15.75;;;10.30;99.90;;;;;;5035532;28;20466;-68
2021/05/18 05:25:23;;;;;;;19.92;15.07;;;10.30;99.90;;;;;;5023389;28;20037;-68
2021/05/18 05:27:49;;;;;;;22.05;16.25;;;10.50;99.90;;;;;;5033386;28;20087;-68
2021/05/18 05:30:15;;;;;;;20.40;14.60;;;10.70;99.90;;;;;;5021319;28;20043;-68
2021/05/18 05:32:41;;;;;;;16.98;14.65;;;10.90;99.90;;;;;;5032767;28;20223;-68
2021/05/18 05:35:08;;;;;;;18.50;13.60;;;11.00;99.90;;;;;;5029194;28;20490;-68
2021/05/18 05:37:33;;;;;;;18.25;14.65;;;11.00;99.90;;;;;;5035205;28;20596;-68
2021/05/18 05:39:59;;;;;;;15.45;13.80;;;11.00;99.90;;;;;;5030109;28;20152;-68
2021/05/18 05:42:25;;;;;;;15.05;12.60;;;11.00;99.90;;;;;;5032201;28;20087;-68
2021/05/18 05:44:51;;;;;;;17.27;13.45;;;11.00;99.90;;;;;;5023677;28;20440;-68
2021/05/18 05:47:18;;;;;;;17.25;13.63;;;11.10;99.90;;;;;;5029352;28;20045;-68
2021/05/18 05:49:44;;;;;;;17.23;14.43;;;11.10;99.90;;;;;;5024448;28;20099;-68
2021/05/18 05:52:16;;;;;;;17.67;14.60;;;11.00;99.90;;;;;;5030876;28;20029;-68
2021/05/18 05:54:42;;;;;;;16.80;13.77;;;11.00;99.90;;;;;;5031371;28;20060;-68
2021/05/18 05:57:08;;;;;;;17.58;14.60;;;11.10;99.90;;;;;;5030799;28;20049;-69
2021/05/18 05:59:34;;;;;;;16.13;14.00;;;11.10;99.90;;;;;;5031043;28;20101;-69
2021/05/18 06:02:03;;;;;;;16.33;13.65;;;11.10;99.90;;;;;;5022002;28;20512;-69
2021/05/18 06:04:29;;;;;;;19.55;14.80;;;11.10;99.90;;;;;;5032956;28;20113;-69
2021/05/18 06:06:55;;;;;;;20.73;14.18;;;11.20;99.90;;;;;;5023123;28;20141;-68
2021/05/18 06:09:21;;;;;;;15.15;13.60;;;11.10;99.90;;;;;;5033717;28;20504;-69
2021/05/18 06:12:02;;;;;;;17.25;14.40;;;11.10;99.90;;;;;;5027640;28;20038;-68
2021/05/18 06:46:49;;;;;;;16.00;14.30;;;11.60;99.90;;;;;;5029144;28;20048;-69
2021/05/18 06:49:15;;;;;;;15.82;12.70;;;11.70;99.90;;;;;;5029950;28;20559;-69
2021/05/18 06:51:41;;;;;;;17.50;13.45;;;11.70;99.90;;;;;;5041538;28;20037;-69
2021/05/18 06:54:06;;;;;;;14.98;12.85;;;11.70;99.90;;;;;;5033427;28;20083;-69
2021/05/18 06:56:35;;;;;;;14.77;13.25;;;11.70;99.90;;;;;;5032296;28;20080;-70
2021/05/18 07:00:08;;;;;;;17.17;13.38;;;11.80;99.90;;;;;;5026922;28;20047;-70
2021/05/18 07:01:58;;;;;;;14.40;12.95;;;11.90;99.90;;;;;;5029191;28;20049;-71
2021/05/18 07:04:25;;;;;;;15.57;12.55;;;11.90;99.90;;;;;;5023995;28;20132;-70
2021/05/18 07:07:05;;;;;;;14.35;12.25;;;12.00;99.90;;;;;;5033108;28;20048;-70
2021/05/18 07:09:31;;;;;;;14.02;11.73;;;12.10;99.90;;;;;;5026838;28;20060;-70
2021/05/18 07:11:56;;;;;;;14.30;12.57;;;12.20;99.90;;;;;;5033010;28;20061;-70
2021/05/18 07:14:22;;;;;;;13.02;11.43;;;12.20;99.90;;;;;;5026984;28;20061;-70
2021/05/18 07:16:48;;;;;;;13.52;12.13;;;12.30;99.90;;;;;;5034385;28;20041;-70
2021/05/18 07:19:14;;;;;;;15.88;11.90;;;12.40;99.90;;;;;;5027659;28;20109;-70
2021/05/18 07:21:39;;;;;;;14.15;11.85;;;12.50;99.90;;;;;;5028706;28;20041;-70
2021/05/18 07:24:11;;;;;;;13.65;10.82;;;12.50;99.90;;;;;;5032141;28;20512;-70
2021/05/18 07:26:37;;;;;;;11.20;10.02;;;12.50;99.90;;;;;;5032198;28;20041;-69
2021/05/18 07:29:03;;;;;;;12.13;10.32;;;12.60;99.90;;;;;;5025695;28;20083;-70
2021/05/18 07:31:29;;;;;;;12.93;9.45;;;12.50;99.90;;;;;;5036662;28;20040;-70
2021/05/18 07:33:55;;;;;;;12.48;9.63;;;12.50;99.90;;;;;;5027172;28;20481;-69
2021/05/18 07:36:20;;;;;;;9.32;8.40;;;12.50;99.90;;;;;;5027640;28;20042;-69
2021/05/18 07:38:49;;;;;;;10.23;9.10;;;12.50;99.90;;;;;;5030423;28;20057;-69
2021/05/18 07:41:15;;;;;;;12.35;9.40;;;12.60;99.90;;;;;;5036571;28;20038;-69
2021/05/18 07:43:41;;;;;;;13.00;9.77;;;12.70;99.90;;;;;;5029385;28;20038;-70
2021/05/18 07:46:13;;;;;;;11.98;10.75;;;12.70;99.90;;;;;;5022644;28;20502;-69
2021/05/18 07:48:42;;;;;;;12.50;9.88;;;12.80;99.60;;;;;;5032197;28;20114;-70
2021/05/18 08:07:03;;;;;;;12.00;8.48;;;13.20;98.60;;;;;;5026563;28;20037;-70
2021/05/18 08:09:29;;;;;;;11.13;9.27;;;13.30;98.70;;;;;;5033885;28;20251;-69
2021/05/18 08:11:55;;;;;;;9.85;8.85;;;13.40;98.50;;;;;;5029564;28;20053;-69
2021/05/18 08:14:23;;;;;;;8.40;7.35;;;13.30;98.10;;;;;;5027843;28;20061;-69
2021/05/18 09:42:02;;;;;;;4.65;3.50;;;18.10;90.80;;;;;;5011375;28;20093;-69
2021/05/18 10:35:58;;;;;;;6.03;5.18;;;14.40;92.10;;;;;;5025222;28;20103;-70
2021/05/18 10:38:44;;;;;;;5.00;4.50;;;14.30;93.50;;;;;;5026718;28;20069;-70
2021/05/18 10:41:18;;;;;;;5.78;5.13;;;14.20;91.90;;;;;;5017621;28;20044;-70
2021/05/18 10:44:06;;;;;;;6.30;5.68;;;14.00;93.20;;;;;;5026117;28;20053;-69
2021/05/18 10:46:54;;;;;;;8.30;6.38;;;13.90;93.10;;;;;;5022978;28;20049;-68
2021/05/18 10:49:30;;;;;;;8.32;7.53;;;13.80;94.30;;;;;;5030519;28;20044;-68
2021/05/18 10:51:59;;;;;;;8.27;7.47;;;13.70;95.30;;;;;;5023322;28;20065;-68
2021/05/18 10:54:35;;;;;;;6.53;6.03;;;13.50;95.60;;;;;;5037238;28;20069;-68
2021/05/18 10:57:15;;;;;;;6.75;5.95;;;13.40;95.70;;;;;;5009507;28;20142;-68
2021/05/18 10:59:54;;;;;;;6.25;5.35;;;13.30;95.30;;;;;;5029490;28;20761;-68
2021/05/18 11:02:34;;;;;;;5.05;4.55;;;13.20;95.90;;;;;;5020829;28;20037;-68
2021/05/18 11:05:10;;;;;;;6.20;5.60;;;13.30;95.80;;;;;;5035548;28;20125;-68
2021/05/18 11:07:46;;;;;;;4.63;4.15;;;13.40;96.40;;;;;;5028926;28;20460;-68
2021/05/18 11:10:18;;;;;;;5.60;5.13;;;13.50;96.80;;;;;;5035109;28;20052;-68
2021/05/18 11:12:48;;;;;;;6.03;5.43;;;13.70;96.90;;;;;;5022094;28;20037;-68
2021/05/18 11:15:21;;;;;;;4.10;3.70;;;13.90;97.80;;;;;;5030459;28;20037;-68
2021/05/18 11:17:52;;;;;;;2.45;2.22;;;14.20;96.50;;;;;;5023949;28;20049;-68
2021/05/18 11:23:29;;;;;;;3.38;2.85;;;14.60;96.90;;;;;;5019431;28;20060;-68
2021/05/18 11:26:09;;;;;;;4.75;4.03;;;14.90;96.30;;;;;;5028394;28;20135;-68
2021/05/18 11:28:40;;;;;;;5.05;4.53;;;15.10;96.60;;;;;;5025771;28;20071;-68
2021/05/18 11:31:13;;;;;;;5.82;4.93;;;15.30;97.00;;;;;;5039188;28;20116;-68
2021/05/18 11:33:45;;;;;;;5.15;4.65;;;15.50;96.50;;;;;;5025447;28;20037;-68
2021/05/18 11:36:16;;;;;;;4.25;3.78;;;15.70;96.70;;;;;;5027893;28;20057;-68
2021/05/18 11:39:11;;;;;;;3.75;3.33;;;15.80;95.60;;;;;;5028788;28;20036;-68
2021/05/18 11:41:38;;;;;;;;;;;15.90;91.10;;;;;;5035650;28;20060;-68
2021/05/18 11:44:08;;;;;;;3.33;2.88;;;15.90;85.80;;;;;;5028170;28;19917;-68
2021/05/18 11:46:43;;;;;;;3.17;2.88;;;15.80;94.40;;;;;;5033933;28;20037;-67
2021/05/18 11:49:13;;;;;;;;;;;16.00;94.40;;;;;;5023712;28;20174;-67
2021/05/18 11:51:49;;;;;;;3.47;3.17;;;16.00;82.60;;;;;;5037535;28;19975;-68
2021/05/18 11:54:18;;;;;;;3.80;3.40;;;16.00;94.80;;;;;;5027743;28;20404;-68
2021/05/18 11:56:45;;;;;;;4.00;3.17;;;16.40;95.30;;;;;;5030962;28;20041;-68
2021/05/18 11:59:13;;;;;;;4.55;3.78;;;16.90;93.10;;;;;;5022356;28;20029;-68
2021/05/18 12:01:56;;;;;;;5.10;3.78;;;17.30;92.40;;;;;;5039706;28;21396;-68
2021/05/18 12:04:23;;;;;;;3.88;3.38;;;17.80;79.90;;;;;;5028498;28;20048;-68
2021/05/18 12:06:55;;;;;;;2.50;2.30;;;18.10;91.10;;;;;;5030711;28;20270;-69
2021/05/18 12:09:21;;;;;;;2.30;2.10;;;18.40;84.60;;;;;;5023863;28;20030;-68
2021/05/18 12:12:02;;;;;;;3.25;2.20;;;18.80;89.70;;;;;;5034674;28;20456;-71
2021/05/18 12:14:29;;;;;;;3.08;2.40;;;19.20;66.80;;;;;;5031464;28;20064;-69
2021/05/18 12:16:56;;;;;;;2.88;2.58;;;19.40;83.60;;;;;;5032394;28;20065;-69
2021/05/18 12:19:23;;;;;;;4.03;2.80;;;19.60;82.10;;;;;;5027105;28;20064;-69
2021/05/18 12:21:52;;;;;;;2.92;2.70;;;19.70;77.10;;;;;;5027731;28;20443;-68
2021/05/18 12:24:23;;;;;;;2.15;1.70;;;19.60;74.30;;;;;;5034012;28;20053;-69
2021/05/18 12:26:48;;;;;;;3.50;2.20;;;19.10;68.40;;;;;;5028912;28;20049;-69
2021/05/18 12:29:41;;;;;;;2.33;2.13;;;18.30;73.30;;;;;;5027362;28;20030;-69
2021/05/18 12:32:15;;;;;;;3.47;2.97;;;17.30;67.10;;;;;;5022676;28;20408;-69
2021/05/18 12:34:42;;;;;;;2.58;2.30;;;16.70;77.10;;;;;;5036717;28;20036;-67
2021/05/18 12:37:08;;;;;;;3.60;2.72;;;16.40;82.20;;;;;;5025844;28;20044;-69
2021/05/18 12:39:37;;;;;;;3.50;2.90;;;16.10;80.80;;;;;;5030160;28;20493;-69
2021/05/18 12:42:05;;;;;;;3.50;3.20;;;16.10;81.40;;;;;;5032423;28;20095;-69
2021/05/18 12:44:47;;;;;;;4.65;4.25;;;16.20;81.20;;;;;;5040025;28;20044;-69
2021/05/18 12:47:13;;;;;;;3.85;3.40;;;16.20;81.20;;;;;;5020497;28;20052;-69
2021/05/18 12:49:40;;;;;;;4.97;4.47;;;16.40;79.40;;;;;;5030507;28;20042;-69
2021/05/18 12:52:12;;;;;;;4.38;3.97;;;16.90;83.80;;;;;;5025419;28;20049;-69
2021/05/18 12:54:49;;;;;;;4.88;4.40;;;17.40;81.60;;;;;;5031481;28;20045;-70
2021/05/18 12:57:18;;;;;;;5.13;4.57;;;17.60;69.70;;;;;;5025599;28;20046;-67
2021/05/18 13:00:06;;;;;;;6.22;4.05;;;17.80;79.00;;;;;;5032364;28;20040;-67
2021/05/18 13:02:37;;;;;;;6.15;5.28;;;18.20;70.90;;;;;;5027981;28;20521;-65
2021/05/18 13:05:12;;;;;;;4.85;4.28;;;18.00;73.90;;;;;;5035280;28;20038;-65
2021/05/18 13:07:40;;;;;;;6.97;5.00;;;17.60;77.40;;;;;;5024167;28;20075;-65
2021/05/18 13:10:06;;;;;;;5.05;4.60;;;17.50;75.30;;;;;;5026291;28;20049;-66
2021/05/18 13:12:32;;;;;;;5.15;4.65;;;17.60;79.00;;;;;;5031776;28;20040;-64
2021/05/18 13:15:01;;;;;;;4.82;4.32;;;17.40;75.80;;;;;;5034919;28;20120;-65
2021/05/18 13:17:29;;;;;;;7.55;4.93;;;17.10;75.70;;;;;;5021480;28;20317;-65
2021/05/18 13:20:07;;;;;;;5.53;5.03;;;17.00;74.90;;;;;;5031936;28;20037;-66
2021/05/18 13:22:35;;;;;;;5.50;4.95;;;16.80;76.30;;;;;;5025016;28;20042;-65
2021/05/18 13:27:57;;;;;;;5.32;4.45;;;16.70;79.00;;;;;;5029673;28;20037;-65
2021/05/18 13:30:29;;;;;;;6.25;4.97;;;16.90;68.00;;;;;;5036279;28;20037;-65
2021/05/18 13:32:55;;;;;;;6.05;4.63;;;16.80;74.00;;;;;;5034227;28;20435;-65
2021/05/18 13:35:24;;;;;;;4.53;4.13;;;16.70;79.20;;;;;;5034011;28;20446;-64
2021/05/18 13:37:50;;;;;;;4.75;4.25;;;16.70;77.50;;;;;;5030352;28;20485;-64
2021/05/18 13:40:18;;;;;;;4.70;4.28;;;17.00;78.80;;;;;;5032668;28;20065;-65
2021/05/18 13:42:49;;;;;;;5.00;4.57;;;17.30;80.10;;;;;;5038815;28;20044;-64
2021/05/18 13:45:15;;;;;;;5.03;4.63;;;17.40;77.10;;;;;;5031684;28;20052;-65
2021/05/18 13:47:41;;;;;;;4.90;4.40;;;17.20;76.50;;;;;;5029677;28;20045;-65
2021/05/18 13:50:08;;;;;;;5.15;4.65;;;17.00;79.70;;;;;;5019912;28;20041;-63
2021/05/18 13:52:33;;;;;;;5.57;4.47;;;16.90;79.60;;;;;;5034342;28;20041;-63
2021/05/18 13:54:59;;;;;;;5.32;4.25;;;16.80;79.50;;;;;;5029438;28;20131;-64
2021/05/18 13:57:25;;;;;;;6.28;4.35;;;16.60;78.60;;;;;;5026923;28;20042;-64
2021/05/18 13:59:51;;;;;;;4.32;3.92;;;16.60;79.80;;;;;;5032338;28;20045;-65
2021/05/18 14:02:18;;;;;;;6.18;4.60;;;16.80;81.80;;;;;;5038747;28;20048;-65
2021/05/18 14:04:44;;;;;;;4.82;4.43;;;17.00;80.50;;;;;;5028783;28;20043;-65
2021/05/18 14:10:30;;;;;;;4.72;4.20;;;17.70;69.40;;;;;;5013580;28;20850;-66
2021/05/18 14:12:56;;;;;;;5.05;4.10;;;17.80;76.90;;;;;;5039800;28;20045;-66
2021/05/18 14:15:22;;;;;;;3.92;3.30;;;18.00;78.20;;;;;;5021322;28;20489;-65
2021/05/18 14:17:48;;;;;;;4.57;3.90;;;18.00;70.40;;;;;;5027654;28;20751;-64
2021/05/18 14:20:14;;;;;;;4.60;3.15;;;17.90;72.70;;;;;;5027137;28;20055;-65
2021/05/18 14:22:40;;;;;;;4.03;3.15;;;17.90;71.80;;;;;;5028917;28;20073;-64
2021/05/18 14:25:06;;;;;;;6.25;3.28;;;17.70;66.90;;;;;;5022243;28;20041;-64
2021/05/18 14:27:38;;;;;;;3.83;2.38;;;17.40;67.00;;;;;;5021933;28;20057;-65
2021/05/18 14:30:06;;;;;;;3.35;2.42;;;17.10;66.20;;;;;;5032820;28;20057;-66
2021/05/18 14:32:32;;;;;;;2.88;2.58;;;16.80;69.70;;;;;;5032816;28;20568;-67
2021/05/18 14:34:58;;;;;;;5.13;3.53;;;16.70;71.70;;;;;;5027465;28;20039;-67
2021/05/18 14:37:24;;;;;;;9.45;4.97;;;16.50;73.40;;;;;;5027621;28;20045;-66
2021/05/18 14:45:03;;;;;;;8.00;6.03;;;15.70;87.20;;;;;;5034133;28;20030;-66
2021/05/18 14:47:35;;;;;;;6.40;5.45;;;15.30;87.90;;;;;;5029128;28;20564;-66
2021/05/18 14:55:32;;;;;;;6.50;5.05;;;14.50;90.00;;;;;;5036110;28;20047;-66
2021/05/18 14:57:57;;;;;;;7.10;5.30;;;14.30;90.70;;;;;;5027372;28;20053;-66
2021/05/18 15:00:23;;;;;;;5.88;5.28;;;14.10;91.10;;;;;;5043072;28;20045;-66
2021/05/18 15:02:49;;;;;;;6.35;4.97;;;14.10;91.70;;;;;;5020124;28;20037;-67
2021/05/18 15:05:16;;;;;;;6.93;5.22;;;14.00;91.80;;;;;;5031001;28;20029;-67
2021/05/18 15:07:42;;;;;;;5.65;5.05;;;14.10;91.90;;;;;;5028839;28;20403;-67
2021/05/18 15:10:09;;;;;;;5.45;4.80;;;14.00;91.90;;;;;;5027042;28;20105;-67
2021/05/18 15:12:35;;;;;;;4.78;4.25;;;14.10;91.90;;;;;;5026646;28;20122;-67
2021/05/18 15:15:02;;;;;;;6.72;5.60;;;14.00;91.50;;;;;;5031187;28;20534;-67
2021/05/18 15:17:29;;;;;;;6.65;5.63;;;14.00;91.20;;;;;;5024453;28;20041;-67
2021/05/18 15:19:55;;;;;;;7.07;6.38;;;13.90;91.40;;;;;;5026138;28;20044;-67
2021/05/18 15:22:21;;;;;;;9.27;6.38;;;13.70;91.80;;;;;;5021388;28;20485;-67
2021/05/18 15:24:47;;;;;;;5.75;5.00;;;13.70;92.10;;;;;;5030205;28;20040;-67
2021/05/18 15:27:13;;;;;;;6.57;5.85;;;13.40;92.10;;;;;;5028094;28;20498;-68
2021/05/18 15:29:38;;;;;;;7.93;6.15;;;13.40;92.30;;;;;;5031683;28;20041;-67
2021/05/18 15:32:05;;;;;;;7.10;5.85;;;13.20;93.30;;;;;;5023595;28;20029;-67
2021/05/18 15:34:31;;;;;;;6.85;5.40;;;13.10;93.70;;;;;;5024878;28;20041;-67
2021/05/18 15:36:57;;;;;;;7.22;5.57;;;13.10;94.30;;;;;;5031430;28;20411;-67
2021/05/18 15:39:24;;;;;;;7.40;6.03;;;13.10;94.30;;;;;;5029485;28;20041;-67
2021/05/18 15:41:50;;;;;;;8.57;6.22;;;13.20;95.10;;;;;;5031873;28;20034;-67
2021/05/18 15:44:16;;;;;;;10.27;6.50;;;13.20;95.80;;;;;;5022941;28;20084;-68
2021/05/18 15:46:43;;;;;;;7.93;6.95;;;13.30;96.20;;;;;;5024947;28;20044;-68
2021/05/18 15:49:10;;;;;;;12.60;7.32;;;13.40;96.60;;;;;;5023761;28;20401;-66
2021/05/18 15:51:36;;;;;;;9.02;8.18;;;13.40;96.70;;;;;;5028332;28;20095;-65
2021/05/18 15:54:02;;;;;;;10.13;8.68;;;13.40;97.00;;;;;;5021751;28;20033;-65
2021/05/18 15:56:28;;;;;;;9.27;8.30;;;13.40;97.10;;;;;;5026605;28;20038;-65
2021/05/18 15:58:53;;;;;;;10.50;9.45;;;13.40;97.10;;;;;;5026730;28;20099;-65
2021/05/18 16:01:19;;;;;;;9.75;8.75;;;13.50;97.20;;;;;;5023072;28;20038;-65
2021/05/18 16:03:45;;;;;;;9.80;8.20;;;13.50;97.30;;;;;;5022831;28;20207;-65
2021/05/18 16:06:11;;;;;;;9.75;8.75;;;13.40;97.10;;;;;;5031163;28;20515;-65
2021/05/18 16:11:09;;;;;;;7.90;7.10;;;13.30;97.40;;;;;;5022254;28;20038;-65
2021/05/18 16:13:37;;;;;;;8.02;7.22;;;13.30;97.00;;;;;;5030660;28;20033;-65
2021/05/18 16:16:06;;;;;;;8.48;7.68;;;13.30;96.90;;;;;;5031744;28;20045;-67
2021/05/18 16:18:33;;;;;;;9.50;7.65;;;13.20;96.50;;;;;;5023428;28;20362;-67
2021/05/18 16:20:59;;;;;;;8.95;8.13;;;13.10;96.10;;;;;;5024295;28;20033;-67
2021/05/18 16:23:27;;;;;;;9.23;8.25;;;13.10;96.80;;;;;;5021238;28;20041;-67
2021/05/18 16:25:56;;;;;;;9.05;8.15;;;13.10;97.00;;;;;;5021538;28;20417;-67
2021/05/18 16:28:23;;;;;;;11.05;8.65;;;13.20;96.90;;;;;;5031378;28;20443;-67
2021/05/18 16:30:49;;;;;;;8.90;8.00;;;13.20;97.30;;;;;;5023653;28;20041;-67
2021/05/18 16:33:16;;;;;;;7.82;7.03;;;13.30;97.60;;;;;;5036357;28;20041;-67
2021/05/18 16:35:42;;;;;;;8.73;7.82;;;13.30;96.10;;;;;;5025697;28;20045;-67
2021/05/18 16:38:08;;;;;;;8.90;8.02;;;13.30;96.10;;;;;;5022959;28;20408;-67
2021/05/18 16:40:33;;;;;;;9.13;8.32;;;13.20;95.70;;;;;;5020701;28;20117;-67
2021/05/18 16:42:59;;;;;;;9.52;8.55;;;13.20;95.70;;;;;;5027221;28;20076;-67
2021/05/18 16:45:25;;;;;;;9.63;7.97;;;13.20;95.60;;;;;;5018879;28;20045;-67
2021/05/18 16:47:52;;;;;;;9.38;8.00;;;13.10;95.70;;;;;;5030786;28;20051;-67
2021/05/18 16:50:18;;;;;;;9.38;7.85;;;12.90;95.70;;;;;;5020617;28;20049;-67
2021/05/18 16:52:44;;;;;;;10.85;9.15;;;12.90;95.80;;;;;;5030730;28;20049;-67
2021/05/18 16:55:10;;;;;;;7.60;6.85;;;12.90;96.60;;;;;;5030074;28;20095;-67
2021/05/18 16:57:36;;;;;;;8.15;7.40;;;13.00;96.70;;;;;;5021859;28;20056;-67
2021/05/18 17:00:07;;;;;;;8.43;7.68;;;13.10;96.50;;;;;;5034628;28;20041;-67
2021/05/18 17:02:33;;;;;;;8.35;7.55;;;13.10;96.10;;;;;;5025983;28;20384;-67
2021/05/18 17:04:59;;;;;;;9.45;8.05;;;13.10;96.00;;;;;;5032630;28;20116;-67
2021/05/18 17:07:25;;;;;;;8.10;7.13;;;13.20;96.20;;;;;;5017234;28;20409;-67
2021/05/18 17:09:51;;;;;;;9.05;8.18;;;13.20;95.70;;;;;;5029192;28;20497;-67
2021/05/18 17:12:21;;;;;;;8.13;7.32;;;13.20;95.60;;;;;;5024971;28;20145;-67
2021/05/18 17:14:48;;;;;;;8.40;7.60;;;13.20;95.50;;;;;;5032492;28;20064;-67
2021/05/18 17:17:15;;;;;;;7.72;6.95;;;13.20;95.30;;;;;;5023819;28;20103;-67
2021/05/18 17:19:42;;;;;;;9.07;8.27;;;13.20;95.30;;;;;;5031226;28;20496;-67
2021/05/18 17:22:10;;;;;;;8.32;7.53;;;13.20;95.60;;;;;;5022109;28;20128;-67
2021/05/18 17:24:36;;;;;;;8.45;7.57;;;13.20;95.30;;;;;;5025709;28;20722;-67
2021/05/18 17:27:03;;;;;;;10.70;8.20;;;13.20;95.00;;;;;;5020096;28;20084;-67
2021/05/18 17:29:30;;;;;;;8.10;7.30;;;13.20;95.00;;;;;;5022995;28;20042;-67
2021/05/18 17:31:57;;;;;;;8.35;7.55;;;13.10;94.70;;;;;;5025175;28;20128;-67
2021/05/18 17:34:23;;;;;;;9.20;8.18;;;12.90;94.60;;;;;;5033313;28;20044;-67
2021/05/18 17:36:50;;;;;;;8.38;7.32;;;12.80;94.90;;;;;;5027385;28;20112;-67
2021/05/18 17:39:16;;;;;;;9.43;7.47;;;12.60;94.70;;;;;;5027963;28;20045;-67
2021/05/18 17:41:42;;;;;;;9.48;8.57;;;12.70;95.00;;;;;;5024657;28;20037;-67